Airfield :







YOU CAN JOIN US ON...

 
LOGIN :

Register | Disclaimer

   EN    FR    IT 

 









Legend :    VFR   Marginal VFR   IFR   Intensive IFR   Very Intensive IFR
Visi :
Ceiling :
>= 8 km
>= 3000ft
5 to 8 km
1000 to 3000 ft
1500m to 5 km
500 to 1000 ft
800 to 1500m
200 to 500 ft
< 800m
< 200 ft
Symbols :   Thunderstorms  Fog  Heavy snow  Heavy precipitations  Wind > 20 kt






- Airport Elevation : 118 ft
- IATA code : YUL


CYUL - Montréal - Pierre-Elliott-Trudeau Int.

CURRENT METAR :
  • 212109Z 29010KT 5SM -SN FEW008 SCT014 BKN022 BKN032 M00/M02 A2976 RMK SF1SC3SC3SC2 SF TR SLP079

EXPIRED METARs :
  • 212000Z 26004KT 2 1/2SM -SN FEW008 BKN013 OVC020 M01/M02 A2977 RMK SF2SC4SC2 SLP085
  • 211926Z 29006KT 280V350 1 1/2SM -SN FEW008 BKN013 OVC020 M01/M03 A2977 RMK SF2SC4SC2 SLP085
  • 211913Z 31006KT 3SM R06R/4000V6000FT/N -SN FEW008 BKN012 OVC020 M01/M03 A2978 RMK SF2SC4SC2 SLP086
  • 211830Z 35007KT 5SM -SN FEW008 FEW014 BKN023 OVC037 M01/M03 A2978 RMK SF1SC2SC4SC2 SF TR SLP086
  • 211818Z 34009KT 2 1/4SM R06L/5000VP6000FT/U R06R/3500VP6000FT/U -SN FEW008 BKN014 OVC025 M01/M03 A2978 RMK SF2SC3SC3 SLP086

TAF TAF CYUL
Valid from the 21 at 21:00 until the 22 at 18:00 UTC


212039Z 2121/2218 28005KT 2SM -SN FEW008 OVC012
TEMPO 2121/2122 6SM -SN SCT012 OVC025
FM212200 28008KT 4SM -SN BKN015 OVC030
TEMPO 2122/2124 P6SM -SN SCT015 OVC030
FM220000 28008KT P6SM -SN OVC030
FM221000 30012G22KT 6SM -SHSN OVC025
BECMG 2212/2214 29015G25KT
BECMG 2215/2217 28020G32KT RMK NXT FCST BY 220000Z
ATIS : ENG : +1 514-633-3037 FRA : +1 514-633-3034
CZUL FIR / North America



MET'MAP, your aeronautical weather chart ! - Copyright ORBIFLY December 2007 - Disclaimer

ORBIFLY MET'MAP TEAM :

Programming & Development : Alexandra Zaïnal
Concept & original design : Baudouin d'Aumeries
Assistance for programming : Marc-Olivier Méhu
Technical & hardware support : Manuel Goepfert

Contact : metmap@orbifly.com




SOURCES & CREDITS :

   NOAA